sensor_id;sensor_type;location;lat;lon;timestamp;pressure;altitude;pressure_sealevel;temperature;humidity
50364;BME280;36272;59.400;17.982;2023-05-12T00:00:22;102329.66;;;10.57;49.69
50364;BME280;36272;59.400;17.982;2023-05-12T00:05:24;102345.91;;;10.55;49.26
50364;BME280;36272;59.400;17.982;2023-05-12T00:10:26;102327.91;;;10.49;49.77
50364;BME280;36272;59.400;17.982;2023-05-12T00:15:28;102337.28;;;10.45;49.87
50364;BME280;36272;59.400;17.982;2023-05-12T00:20:30;102350.84;;;10.44;50.10
50364;BME280;36272;59.400;17.982;2023-05-12T00:25:32;102352.69;;;10.43;49.97
50364;BME280;36272;59.400;17.982;2023-05-12T00:30:37;102357.38;;;10.41;50.04
50364;BME280;36272;59.400;17.982;2023-05-12T00:35:38;102363.56;;;10.41;50.00
50364;BME280;36272;59.400;17.982;2023-05-12T00:40:40;102357.38;;;10.41;49.95
50364;BME280;36272;59.400;17.982;2023-05-12T00:45:42;102355.03;;;10.38;49.94
50364;BME280;36272;59.400;17.982;2023-05-12T00:50:44;102363.44;;;10.35;50.41
50364;BME280;36272;59.400;17.982;2023-05-12T00:55:46;102361.31;;;10.30;50.36
50364;BME280;36272;59.400;17.982;2023-05-12T01:00:48;102366.00;;;10.28;50.40
50364;BME280;36272;59.400;17.982;2023-05-12T01:05:55;102356.69;;;10.24;50.47
50364;BME280;36272;59.400;17.982;2023-05-12T01:11:00;102376.75;;;10.20;50.58
50364;BME280;36272;59.400;17.982;2023-05-12T01:16:03;102362.09;;;10.16;50.86
50364;BME280;36272;59.400;17.982;2023-05-12T01:21:05;102379.84;;;10.08;50.93
50364;BME280;36272;59.400;17.982;2023-05-12T01:26:08;102378.53;;;10.04;50.77
50364;BME280;36272;59.400;17.982;2023-05-12T01:31:10;102387.91;;;10.00;50.80
50364;BME280;36272;59.400;17.982;2023-05-12T01:36:12;102393.59;;;9.97;50.96
50364;BME280;36272;59.400;17.982;2023-05-12T01:41:14;102395.63;;;9.95;51.03
50364;BME280;36272;59.400;17.982;2023-05-12T01:46:16;102400.69;;;9.90;51.01
50364;BME280;36272;59.400;17.982;2023-05-12T01:51:18;102402.16;;;9.92;51.13
50364;BME280;36272;59.400;17.982;2023-05-12T01:56:20;102404.19;;;9.90;51.12
50364;BME280;36272;59.400;17.982;2023-05-12T02:01:27;102383.66;;;9.91;51.47
50364;BME280;36272;59.400;17.982;2023-05-12T02:06:29;102405.19;;;9.89;51.54
50364;BME280;36272;59.400;17.982;2023-05-12T02:11:31;102404.53;;;9.87;51.41
50364;BME280;36272;59.400;17.982;2023-05-12T02:16:36;102409.06;;;9.87;51.68
50364;BME280;36272;59.400;17.982;2023-05-12T02:21:38;102402.41;;;9.82;51.60
50364;BME280;36272;59.400;17.982;2023-05-12T02:26:40;102413.59;;;9.78;51.59
50364;BME280;36272;59.400;17.982;2023-05-12T02:31:41;102410.47;;;9.74;51.95
50364;BME280;36272;59.400;17.982;2023-05-12T02:36:43;102412.16;;;9.67;51.86
50364;BME280;36272;59.400;17.982;2023-05-12T02:41:45;102410.84;;;9.63;52.13
50364;BME280;36272;59.400;17.982;2023-05-12T02:46:46;102412.38;;;9.57;52.34
50364;BME280;36272;59.400;17.982;2023-05-12T02:51:48;102415.56;;;9.52;52.65
50364;BME280;36272;59.400;17.982;2023-05-12T02:56:52;102418.94;;;9.46;52.79
50364;BME280;36272;59.400;17.982;2023-05-12T03:01:54;102419.63;;;9.40;53.11
50364;BME280;36272;59.400;17.982;2023-05-12T03:06:56;102415.47;;;9.37;53.20
50364;BME280;36272;59.400;17.982;2023-05-12T03:11:57;102428.16;;;9.35;53.28
50364;BME280;36272;59.400;17.982;2023-05-12T03:16:59;102423.81;;;9.34;53.42
50364;BME280;36272;59.400;17.982;2023-05-12T03:22:01;102431.16;;;9.32;53.52
50364;BME280;36272;59.400;17.982;2023-05-12T03:27:03;102428.50;;;9.32;53.46
50364;BME280;36272;59.400;17.982;2023-05-12T03:32:06;102433.00;;;9.32;53.47
50364;BME280;36272;59.400;17.982;2023-05-12T03:37:07;102435.50;;;9.33;53.83
50364;BME280;36272;59.400;17.982;2023-05-12T03:42:09;102435.00;;;9.38;53.63
50364;BME280;36272;59.400;17.982;2023-05-12T03:47:11;102428.78;;;9.46;53.57
50364;BME280;36272;59.400;17.982;2023-05-12T03:52:12;102426.09;;;9.54;53.54
50364;BME280;36272;59.400;17.982;2023-05-12T03:57:14;102428.53;;;9.64;53.35
50364;BME280;36272;59.400;17.982;2023-05-12T04:02:16;102433.50;;;9.75;53.35
50364;BME280;36272;59.400;17.982;2023-05-12T04:07:20;102427.94;;;9.85;53.21
50364;BME280;36272;59.400;17.982;2023-05-12T04:12:22;102430.88;;;9.99;52.94
50364;BME280;36272;59.400;17.982;2023-05-12T04:17:24;102436.47;;;10.12;52.65
50364;BME280;36272;59.400;17.982;2023-05-12T04:22:26;102440.22;;;10.26;52.67
50364;BME280;36272;59.400;17.982;2023-05-12T04:27:30;102444.28;;;10.45;52.03
50364;BME280;36272;59.400;17.982;2023-05-12T04:38:05;102441.28;;;10.86;51.36
50364;BME280;36272;59.400;17.982;2023-05-12T04:43:16;102429.56;;;11.03;51.08
50364;BME280;36272;59.400;17.982;2023-05-12T04:48:20;102436.06;;;11.23;50.76
50364;BME280;36272;59.400;17.982;2023-05-12T04:53:26;102440.19;;;11.41;50.60
50364;BME280;36272;59.400;17.982;2023-05-12T04:58:28;102443.97;;;11.62;50.39
50364;BME280;36272;59.400;17.982;2023-05-12T05:03:30;102424.53;;;11.74;49.64
50364;BME280;36272;59.400;17.982;2023-05-12T05:08:32;102432.81;;;11.95;49.72
50364;BME280;36272;59.400;17.982;2023-05-12T05:13:33;102437.50;;;12.08;49.29
50364;BME280;36272;59.400;17.982;2023-05-12T05:18:35;102437.69;;;12.28;49.17
50364;BME280;36272;59.400;17.982;2023-05-12T05:23:38;102436.03;;;12.48;48.59
50364;BME280;36272;59.400;17.982;2023-05-12T05:28:39;102431.22;;;12.66;48.21
50364;BME280;36272;59.400;17.982;2023-05-12T05:33:42;102425.16;;;12.85;48.07
50364;BME280;36272;59.400;17.982;2023-05-12T05:38:43;102437.69;;;13.06;47.35
50364;BME280;36272;59.400;17.982;2023-05-12T05:43:45;102429.34;;;13.23;47.15
50364;BME280;36272;59.400;17.982;2023-05-12T05:48:47;102435.06;;;13.42;46.92
50364;BME280;36272;59.400;17.982;2023-05-12T05:53:48;102434.50;;;13.60;46.36
50364;BME280;36272;59.400;17.982;2023-05-12T05:58:50;102439.56;;;13.83;46.05
50364;BME280;36272;59.400;17.982;2023-05-12T06:03:52;102437.56;;;14.05;45.59
50364;BME280;36272;59.400;17.982;2023-05-12T06:08:54;102443.38;;;14.22;45.13
50364;BME280;36272;59.400;17.982;2023-05-12T06:13:56;102441.75;;;14.41;44.68
50364;BME280;36272;59.400;17.982;2023-05-12T06:18:58;102445.47;;;14.61;44.12
50364;BME280;36272;59.400;17.982;2023-05-12T06:23:59;102437.41;;;14.81;43.92
50364;BME280;36272;59.400;17.982;2023-05-12T06:29:09;102426.00;;;14.99;43.50
50364;BME280;36272;59.400;17.982;2023-05-12T06:34:11;102438.59;;;15.19;43.42
50364;BME280;36272;59.400;17.982;2023-05-12T06:39:15;102444.13;;;15.37;42.89
50364;BME280;36272;59.400;17.982;2023-05-12T06:44:20;102442.63;;;15.55;42.99
50364;BME280;36272;59.400;17.982;2023-05-12T06:49:28;102431.75;;;15.68;42.33
50364;BME280;36272;59.400;17.982;2023-05-12T06:55:00;102454.09;;;15.89;42.19
50364;BME280;36272;59.400;17.982;2023-05-12T07:00:02;102438.47;;;16.04;42.05
50364;BME280;36272;59.400;17.982;2023-05-12T07:05:05;102440.00;;;16.19;41.83
50364;BME280;36272;59.400;17.982;2023-05-12T07:10:07;102440.31;;;16.36;41.79
50364;BME280;36272;59.400;17.982;2023-05-12T07:15:17;102448.09;;;16.51;41.74
50364;BME280;36272;59.400;17.982;2023-05-12T07:21:51;102428.78;;;16.73;41.01
50364;BME280;36272;59.400;17.982;2023-05-12T07:27:04;102443.59;;;16.89;41.03
50364;BME280;36272;59.400;17.982;2023-05-12T07:32:06;102446.59;;;17.06;40.34
50364;BME280;36272;59.400;17.982;2023-05-12T07:37:19;102440.44;;;17.17;39.98
50364;BME280;36272;59.400;17.982;2023-05-12T07:42:36;102434.88;;;17.31;39.81
50364;BME280;36272;59.400;17.982;2023-05-12T07:47:44;102430.94;;;17.45;39.65
50364;BME280;36272;59.400;17.982;2023-05-12T07:52:52;102427.28;;;17.58;38.94
50364;BME280;36272;59.400;17.982;2023-05-12T07:58:00;102443.09;;;17.73;39.10
50364;BME280;36272;59.400;17.982;2023-05-12T08:03:03;102437.72;;;17.85;39.06
50364;BME280;36272;59.400;17.982;2023-05-12T08:08:05;102455.66;;;17.98;38.62
50364;BME280;36272;59.400;17.982;2023-05-12T08:13:07;102453.03;;;18.10;38.41
50364;BME280;36272;59.400;17.982;2023-05-12T08:18:11;102452.47;;;18.20;38.68
50364;BME280;36272;59.400;17.982;2023-05-12T08:23:24;102448.72;;;18.33;38.42
50364;BME280;36272;59.400;17.982;2023-05-12T08:33:57;102441.13;;;18.53;38.49
50364;BME280;36272;59.400;17.982;2023-05-12T08:38:59;102447.59;;;18.64;38.20
50364;BME280;36272;59.400;17.982;2023-05-12T08:44:02;102453.59;;;18.78;38.31
50364;BME280;36272;59.400;17.982;2023-05-12T08:49:05;102425.91;;;18.88;37.79
50364;BME280;36272;59.400;17.982;2023-05-12T08:54:12;102446.78;;;18.99;37.52
50364;BME280;36272;59.400;17.982;2023-05-12T08:59:36;102431.81;;;19.09;37.62
50364;BME280;36272;59.400;17.982;2023-05-12T09:04:48;102447.34;;;19.25;37.41
50364;BME280;36272;59.400;17.982;2023-05-12T09:10:17;102429.03;;;19.32;37.28
50364;BME280;36272;59.400;17.982;2023-05-12T09:15:33;102432.06;;;19.48;36.78
50364;BME280;36272;59.400;17.982;2023-05-12T09:20:44;102434.63;;;19.55;37.04
50364;BME280;36272;59.400;17.982;2023-05-12T09:26:11;102407.53;;;19.72;37.02
50364;BME280;36272;59.400;17.982;2023-05-12T09:31:23;102414.22;;;19.81;36.36
50364;BME280;36272;59.400;17.982;2023-05-12T09:36:28;102420.13;;;19.90;36.67
50364;BME280;36272;59.400;17.982;2023-05-12T09:41:41;102404.69;;;20.08;36.38
50364;BME280;36272;59.400;17.982;2023-05-12T09:46:47;102394.56;;;20.20;35.82
50364;BME280;36272;59.400;17.982;2023-05-12T09:51:55;102395.28;;;20.32;35.93
50364;BME280;36272;59.400;17.982;2023-05-12T09:57:01;102395.72;;;20.41;35.82
50364;BME280;36272;59.400;17.982;2023-05-12T10:02:05;102393.66;;;20.48;35.21
50364;BME280;36272;59.400;17.982;2023-05-12T10:07:11;102394.34;;;20.61;35.26
50364;BME280;36272;59.400;17.982;2023-05-12T10:12:13;102402.75;;;20.76;35.17
50364;BME280;36272;59.400;17.982;2023-05-12T10:17:18;102392.53;;;20.84;34.51
50364;BME280;36272;59.400;17.982;2023-05-12T10:22:20;102411.22;;;20.97;34.98
50364;BME280;36272;59.400;17.982;2023-05-12T10:27:23;102394.28;;;21.12;35.08
50364;BME280;36272;59.400;17.982;2023-05-12T10:32:26;102402.59;;;21.28;34.83
50364;BME280;36272;59.400;17.982;2023-05-12T10:37:30;102400.88;;;21.44;34.70
50364;BME280;36272;59.400;17.982;2023-05-12T10:42:43;102385.78;;;21.58;34.38
50364;BME280;36272;59.400;17.982;2023-05-12T10:47:48;102387.91;;;21.78;34.52
50364;BME280;36272;59.400;17.982;2023-05-12T10:52:53;102374.78;;;22.03;34.61
50364;BME280;36272;59.400;17.982;2023-05-12T10:58:07;102373.03;;;22.24;34.35
50364;BME280;36272;59.400;17.982;2023-05-12T11:03:25;102374.09;;;22.55;34.04
50364;BME280;36272;59.400;17.982;2023-05-12T11:08:35;102369.66;;;22.97;33.85
50364;BME280;36272;59.400;17.982;2023-05-12T11:13:46;102382.94;;;23.47;33.53
50364;BME280;36272;59.400;17.982;2023-05-12T11:19:05;102373.22;;;26.54;30.64
50364;BME280;36272;59.400;17.982;2023-05-12T11:24:17;102382.91;;;30.53;27.89
50364;BME280;36272;59.400;17.982;2023-05-12T11:29:35;102380.25;;;33.65;25.85
50364;BME280;36272;59.400;17.982;2023-05-12T11:34:41;102382.84;;;36.08;24.51
50364;BME280;36272;59.400;17.982;2023-05-12T11:39:54;102366.88;;;38.21;23.48
50364;BME280;36272;59.400;17.982;2023-05-12T11:45:09;102369.13;;;39.65;22.33
50364;BME280;36272;59.400;17.982;2023-05-12T11:50:25;102358.78;;;40.84;22.01
50364;BME280;36272;59.400;17.982;2023-05-12T12:01:44;102361.78;;;42.00;21.49
50364;BME280;36272;59.400;17.982;2023-05-12T12:06:57;102351.69;;;43.28;20.77
50364;BME280;36272;59.400;17.982;2023-05-12T12:12:09;102357.47;;;44.47;20.04
50364;BME280;36272;59.400;17.982;2023-05-12T12:17:49;102351.50;;;44.76;20.07
50364;BME280;36272;59.400;17.982;2023-05-12T12:22:52;102351.91;;;44.39;19.62
50364;BME280;36272;59.400;17.982;2023-05-12T12:27:54;102362.13;;;44.26;19.90
50364;BME280;36272;59.400;17.982;2023-05-12T12:32:58;102374.22;;;44.61;19.49
50364;BME280;36272;59.400;17.982;2023-05-12T12:38:00;102357.03;;;45.10;19.20
50364;BME280;36272;59.400;17.982;2023-05-12T12:43:02;102359.47;;;44.81;19.39
50364;BME280;36272;59.400;17.982;2023-05-12T12:48:04;102355.72;;;45.19;18.99
50364;BME280;36272;59.400;17.982;2023-05-12T12:53:07;102343.69;;;45.66;19.01
50364;BME280;36272;59.400;17.982;2023-05-12T12:58:09;102343.97;;;46.96;19.30
50364;BME280;36272;59.400;17.982;2023-05-12T13:03:14;102361.00;;;47.46;18.56
50364;BME280;36272;59.400;17.982;2023-05-12T13:08:15;102362.44;;;47.01;17.83
50364;BME280;36272;59.400;17.982;2023-05-12T13:13:21;102355.72;;;46.74;18.07
50364;BME280;36272;59.400;17.982;2023-05-12T13:18:24;102362.59;;;46.57;17.83
50364;BME280;36272;59.400;17.982;2023-05-12T13:23:26;102349.16;;;46.41;18.02
50364;BME280;36272;59.400;17.982;2023-05-12T13:28:28;102355.25;;;46.59;17.89
50364;BME280;36272;59.400;17.982;2023-05-12T13:33:29;102347.69;;;45.92;17.99
50364;BME280;36272;59.400;17.982;2023-05-12T13:38:40;102335.72;;;45.61;17.71
50364;BME280;36272;59.400;17.982;2023-05-12T13:43:41;102344.47;;;46.14;17.81
50364;BME280;36272;59.400;17.982;2023-05-12T13:48:50;102342.69;;;46.00;17.62
50364;BME280;36272;59.400;17.982;2023-05-12T13:53:58;102336.19;;;45.79;18.00
50364;BME280;36272;59.400;17.982;2023-05-12T13:59:20;102331.81;;;45.98;17.87
50364;BME280;36272;59.400;17.982;2023-05-12T14:04:21;102343.81;;;46.46;17.55
50364;BME280;36272;59.400;17.982;2023-05-12T14:09:23;102339.03;;;46.43;17.45
50364;BME280;36272;59.400;17.982;2023-05-12T14:14:28;102332.38;;;46.54;17.74
50364;BME280;36272;59.400;17.982;2023-05-12T14:19:30;102338.91;;;46.67;17.52
50364;BME280;36272;59.400;17.982;2023-05-12T14:24:31;102335.47;;;46.19;17.47
50364;BME280;36272;59.400;17.982;2023-05-12T14:29:38;102325.34;;;45.30;17.76
50364;BME280;36272;59.400;17.982;2023-05-12T14:34:40;102332.88;;;45.09;17.72
50364;BME280;36272;59.400;17.982;2023-05-12T14:39:41;102331.94;;;44.26;18.01
50364;BME280;36272;59.400;17.982;2023-05-12T14:44:43;102345.88;;;43.99;18.08
50364;BME280;36272;59.400;17.982;2023-05-12T14:49:47;102341.16;;;43.39;17.92
50364;BME280;36272;59.400;17.982;2023-05-12T14:54:49;102342.28;;;42.86;18.19
50364;BME280;36272;59.400;17.982;2023-05-12T14:59:51;102342.13;;;41.64;18.56
50364;BME280;36272;59.400;17.982;2023-05-12T15:04:56;102350.16;;;40.48;18.94
50364;BME280;36272;59.400;17.982;2023-05-12T15:09:58;102339.75;;;39.44;19.35
50364;BME280;36272;59.400;17.982;2023-05-12T15:14:59;102346.66;;;38.55;19.93
50364;BME280;36272;59.400;17.982;2023-05-12T15:20:05;102333.78;;;37.50;20.29
50364;BME280;36272;59.400;17.982;2023-05-12T15:25:08;102339.13;;;36.44;20.72
50364;BME280;36272;59.400;17.982;2023-05-12T15:30:30;102319.47;;;35.85;21.21
50364;BME280;36272;59.400;17.982;2023-05-12T15:35:31;102336.97;;;35.13;21.35
50364;BME280;36272;59.400;17.982;2023-05-12T15:40:43;102320.56;;;34.42;21.79
50364;BME280;36272;59.400;17.982;2023-05-12T15:45:45;102336.88;;;33.60;22.19
50364;BME280;36272;59.400;17.982;2023-05-12T15:50:47;102337.19;;;32.83;22.57
50364;BME280;36272;59.400;17.982;2023-05-12T15:55:58;102317.88;;;31.75;23.33
50364;BME280;36272;59.400;17.982;2023-05-12T16:00:59;102328.91;;;30.69;23.74
50364;BME280;36272;59.400;17.982;2023-05-12T16:06:01;102332.34;;;29.94;24.37
50364;BME280;36272;59.400;17.982;2023-05-12T16:11:08;102316.22;;;29.33;24.78
50364;BME280;36272;59.400;17.982;2023-05-12T16:16:10;102326.16;;;28.70;25.45
50364;BME280;36272;59.400;17.982;2023-05-12T16:21:12;102332.19;;;28.16;25.68
50364;BME280;36272;59.400;17.982;2023-05-12T16:26:14;102330.91;;;27.42;26.19
50364;BME280;36272;59.400;17.982;2023-05-12T16:31:15;102326.56;;;26.78;26.72
50364;BME280;36272;59.400;17.982;2023-05-12T16:36:18;102322.78;;;26.25;27.38
50364;BME280;36272;59.400;17.982;2023-05-12T16:41:20;102331.22;;;25.70;27.68
50364;BME280;36272;59.400;17.982;2023-05-12T16:46:22;102323.84;;;25.26;28.07
50364;BME280;36272;59.400;17.982;2023-05-12T16:51:29;102315.31;;;24.87;28.80
50364;BME280;36272;59.400;17.982;2023-05-12T16:56:34;102323.63;;;24.51;28.99
50364;BME280;36272;59.400;17.982;2023-05-12T17:01:40;102303.78;;;24.14;29.30
50364;BME280;36272;59.400;17.982;2023-05-12T17:06:42;102328.63;;;23.76;29.57
50364;BME280;36272;59.400;17.982;2023-05-12T17:11:44;102327.78;;;23.45;29.89
50364;BME280;36272;59.400;17.982;2023-05-12T17:16:45;102329.63;;;23.13;30.31
50364;BME280;36272;59.400;17.982;2023-05-12T17:21:47;102321.13;;;22.94;30.57
50364;BME280;36272;59.400;17.982;2023-05-12T17:26:49;102315.28;;;22.75;30.59
50364;BME280;36272;59.400;17.982;2023-05-12T17:31:51;102316.31;;;22.53;31.09
50364;BME280;36272;59.400;17.982;2023-05-12T17:36:53;102314.50;;;22.32;31.30
50364;BME280;36272;59.400;17.982;2023-05-12T17:41:54;102319.84;;;22.11;31.48
50364;BME280;36272;59.400;17.982;2023-05-12T17:46:56;102318.03;;;21.89;31.90
50364;BME280;36272;59.400;17.982;2023-05-12T17:51:57;102319.81;;;21.73;32.18
50364;BME280;36272;59.400;17.982;2023-05-12T17:57:02;102305.22;;;21.57;32.44
50364;BME280;36272;59.400;17.982;2023-05-12T18:02:04;102329.03;;;21.45;32.17
50364;BME280;36272;59.400;17.982;2023-05-12T18:07:09;102308.97;;;21.23;32.52
50364;BME280;36272;59.400;17.982;2023-05-12T18:12:10;102329.75;;;21.07;32.54
50364;BME280;36272;59.400;17.982;2023-05-12T18:17:12;102330.31;;;20.87;32.96
50364;BME280;36272;59.400;17.982;2023-05-12T18:22:14;102328.69;;;20.69;33.29
50364;BME280;36272;59.400;17.982;2023-05-12T18:27:17;102337.75;;;20.53;33.38
50364;BME280;36272;59.400;17.982;2023-05-12T18:32:21;102324.16;;;20.35;33.58
50364;BME280;36272;59.400;17.982;2023-05-12T18:37:23;102334.81;;;20.20;33.74
50364;BME280;36272;59.400;17.982;2023-05-12T18:42:26;102343.22;;;20.01;34.17
50364;BME280;36272;59.400;17.982;2023-05-12T18:47:29;102356.75;;;19.84;34.23
50364;BME280;36272;59.400;17.982;2023-05-12T18:52:30;102355.66;;;19.68;34.58
50364;BME280;36272;59.400;17.982;2023-05-12T18:57:35;102361.28;;;19.50;34.64
50364;BME280;36272;59.400;17.982;2023-05-12T19:02:37;102357.47;;;19.34;34.85
50364;BME280;36272;59.400;17.982;2023-05-12T19:07:39;102364.13;;;19.14;34.95
50364;BME280;36272;59.400;17.982;2023-05-12T19:12:43;102368.03;;;18.94;35.15
50364;BME280;36272;59.400;17.982;2023-05-12T19:17:46;102353.00;;;18.75;35.42
50364;BME280;36272;59.400;17.982;2023-05-12T19:22:48;102358.28;;;18.57;35.66
50364;BME280;36272;59.400;17.982;2023-05-12T19:27:50;102354.41;;;18.41;35.92
50364;BME280;36272;59.400;17.982;2023-05-12T19:33:01;102353.47;;;18.24;36.18
50364;BME280;36272;59.400;17.982;2023-05-12T19:38:03;102374.75;;;18.08;36.26
50364;BME280;36272;59.400;17.982;2023-05-12T19:43:05;102381.84;;;17.91;36.60
50364;BME280;36272;59.400;17.982;2023-05-12T19:48:10;102379.34;;;17.77;36.96
50364;BME280;36272;59.400;17.982;2023-05-12T19:53:13;102385.41;;;17.61;37.04
50364;BME280;36272;59.400;17.982;2023-05-12T19:58:15;102387.22;;;17.48;37.28
50364;BME280;36272;59.400;17.982;2023-05-12T20:03:20;102374.72;;;17.35;37.54
50364;BME280;36272;59.400;17.982;2023-05-12T20:08:24;102374.50;;;17.18;37.56
50364;BME280;36272;59.400;17.982;2023-05-12T20:13:31;102374.06;;;17.03;37.79
50364;BME280;36272;59.400;17.982;2023-05-12T20:18:33;102382.28;;;16.89;38.10
50364;BME280;36272;59.400;17.982;2023-05-12T20:23:34;102383.84;;;16.78;38.43
50364;BME280;36272;59.400;17.982;2023-05-12T20:28:36;102385.25;;;16.62;38.69
50364;BME280;36272;59.400;17.982;2023-05-12T20:33:38;102389.31;;;16.53;38.57
50364;BME280;36272;59.400;17.982;2023-05-12T20:38:40;102393.75;;;16.41;38.82
50364;BME280;36272;59.400;17.982;2023-05-12T20:43:43;102377.66;;;16.27;39.30
50364;BME280;36272;59.400;17.982;2023-05-12T20:48:46;102394.41;;;16.11;39.30
50364;BME280;36272;59.400;17.982;2023-05-12T20:53:47;102392.41;;;15.99;39.83
50364;BME280;36272;59.400;17.982;2023-05-12T20:58:49;102391.25;;;15.88;39.63
50364;BME280;36272;59.400;17.982;2023-05-12T21:03:51;102412.44;;;15.78;39.69
50364;BME280;36272;59.400;17.982;2023-05-12T21:08:52;102406.91;;;15.66;40.01
50364;BME280;36272;59.400;17.982;2023-05-12T21:13:54;102414.63;;;15.56;40.03
50364;BME280;36272;59.400;17.982;2023-05-12T21:18:56;102408.84;;;15.45;40.46
50364;BME280;36272;59.400;17.982;2023-05-12T21:23:58;102409.50;;;15.34;40.25
50364;BME280;36272;59.400;17.982;2023-05-12T21:28:59;102402.69;;;15.25;40.63
50364;BME280;36272;59.400;17.982;2023-05-12T21:34:03;102413.31;;;15.13;41.05
50364;BME280;36272;59.400;17.982;2023-05-12T21:39:05;102412.91;;;15.02;41.01
50364;BME280;36272;59.400;17.982;2023-05-12T21:44:08;102412.31;;;14.94;41.24
50364;BME280;36272;59.400;17.982;2023-05-12T21:49:09;102420.84;;;14.84;41.60
50364;BME280;36272;59.400;17.982;2023-05-12T21:54:11;102424.59;;;14.76;41.70
50364;BME280;36272;59.400;17.982;2023-05-12T21:59:13;102426.63;;;14.67;41.93
50364;BME280;36272;59.400;17.982;2023-05-12T22:04:14;102431.38;;;14.58;42.12
50364;BME280;36272;59.400;17.982;2023-05-12T22:09:16;102440.69;;;14.49;42.19
50364;BME280;36272;59.400;17.982;2023-05-12T22:14:18;102431.78;;;14.42;42.31
50364;BME280;36272;59.400;17.982;2023-05-12T22:19:21;102432.81;;;14.34;42.63
50364;BME280;36272;59.400;17.982;2023-05-12T22:24:22;102431.16;;;14.26;42.92
50364;BME280;36272;59.400;17.982;2023-05-12T22:29:24;102423.28;;;14.18;43.08
50364;BME280;36272;59.400;17.982;2023-05-12T22:34:26;102430.72;;;14.09;43.24
50364;BME280;36272;59.400;17.982;2023-05-12T22:39:28;102427.38;;;14.01;43.35
50364;BME280;36272;59.400;17.982;2023-05-12T22:44:29;102427.56;;;13.92;43.82
50364;BME280;36272;59.400;17.982;2023-05-12T22:49:31;102427.16;;;13.82;43.92
50364;BME280;36272;59.400;17.982;2023-05-12T22:54:32;102434.16;;;13.76;44.07
50364;BME280;36272;59.400;17.982;2023-05-12T22:59:34;102433.50;;;13.67;44.16
50364;BME280;36272;59.400;17.982;2023-05-12T23:04:39;102436.81;;;13.63;44.33
50364;BME280;36272;59.400;17.982;2023-05-12T23:09:40;102439.44;;;13.56;44.83
50364;BME280;36272;59.400;17.982;2023-05-12T23:14:42;102436.91;;;13.48;44.69
50364;BME280;36272;59.400;17.982;2023-05-12T23:19:44;102442.63;;;13.38;45.22
50364;BME280;36272;59.400;17.982;2023-05-12T23:24:45;102438.44;;;13.29;44.91
50364;BME280;36272;59.400;17.982;2023-05-12T23:29:47;102440.47;;;13.20;45.34
50364;BME280;36272;59.400;17.982;2023-05-12T23:34:49;102436.50;;;13.09;45.45
50364;BME280;36272;59.400;17.982;2023-05-12T23:39:50;102437.47;;;13.01;45.99
50364;BME280;36272;59.400;17.982;2023-05-12T23:44:52;102443.19;;;12.91;46.24
50364;BME280;36272;59.400;17.982;2023-05-12T23:49:54;102441.88;;;12.81;46.16
50364;BME280;36272;59.400;17.982;2023-05-12T23:54:55;102447.59;;;12.71;46.19
50364;BME280;36272;59.400;17.982;2023-05-12T23:59:57;102446.06;;;12.61;46.54
